Time;durP1;ratioP1;P1;durP2;ratioP2;P2;SDS_P1;SDS_P2;PMS_P1;PMS_P2;Temp;Humidity;BMP_temperature;BMP_pressure;BME280_temperature;BME280_humidity;BME280_pressure;Samples;Min_cycle;Max_cycle;Signal;HPM_P1;HPM_P2
2021/10/16 00:00:40;;;;;;;4.35;2.58;;;11.70;70.50;;;;;;4880797;29;20020;-77
2021/10/16 00:03:06;;;;;;;4.32;2.67;;;11.60;70.50;;;;;;4880605;29;20033;-77
2021/10/16 00:05:31;;;;;;;4.05;2.50;;;11.70;70.60;;;;;;4881154;29;20084;-77
2021/10/16 00:07:57;;;;;;;4.40;2.50;;;11.60;70.60;;;;;;4880596;29;20436;-77
2021/10/16 00:10:23;;;;;;;3.72;2.33;;;11.60;70.60;;;;;;4880909;29;20043;-77
2021/10/16 00:12:49;;;;;;;3.47;2.40;;;11.60;70.60;;;;;;4881624;29;20037;-78
2021/10/16 00:15:15;;;;;;;4.32;2.67;;;11.60;70.60;;;;;;4866026;29;20049;-77
2021/10/16 00:17:41;;;;;;;4.07;2.30;;;11.60;70.60;;;;;;4858054;29;1114494;-77
2021/10/16 00:20:08;;;;;;;3.83;2.42;;;11.60;70.70;;;;;;4866663;29;20040;-77
2021/10/16 00:22:34;;;;;;;4.32;2.60;;;11.50;70.60;;;;;;4866563;29;20052;-76
2021/10/16 00:25:00;;;;;;;4.03;2.47;;;11.50;70.70;;;;;;4881349;29;20495;-77
2021/10/16 00:27:26;;;;;;;5.40;2.50;;;11.50;70.60;;;;;;4865717;29;20044;-76
2021/10/16 00:29:51;;;;;;;4.95;2.55;;;11.50;70.70;;;;;;4866003;29;20043;-77
2021/10/16 00:32:17;;;;;;;3.78;2.40;;;11.50;70.70;;;;;;4881570;29;20040;-77
2021/10/16 00:34:43;;;;;;;3.38;2.45;;;11.40;70.70;;;;;;4866429;29;20039;-76
2021/10/16 00:37:09;;;;;;;4.90;2.55;;;11.40;70.70;;;;;;4896935;29;20071;-76
2021/10/16 00:39:35;;;;;;;3.05;2.10;;;11.40;70.70;;;;;;4881567;29;20101;-77
2021/10/16 00:42:00;;;;;;;3.95;2.70;;;11.40;70.70;;;;;;4866061;29;20052;-77
2021/10/16 00:44:27;;;;;;;4.28;2.58;;;11.30;71.30;;;;;;4866109;29;20048;-77
2021/10/16 00:46:56;;;;;;;4.97;3.15;;;11.30;71.00;;;;;;4865683;29;20485;-77
2021/10/16 00:49:23;;;;;;;4.75;2.35;;;11.30;70.70;;;;;;4881768;29;20092;-77
2021/10/16 00:51:49;;;;;;;4.03;2.40;;;11.30;70.70;;;;;;4865906;29;20069;-77
2021/10/16 00:54:15;;;;;;;5.68;2.60;;;11.30;70.70;;;;;;4865685;29;20037;-77
2021/10/16 00:56:43;;;;;;;4.05;2.80;;;11.30;70.70;;;;;;4865634;29;20060;-77
2021/10/16 00:59:09;;;;;;;5.05;2.95;;;11.30;70.80;;;;;;4881145;29;20032;-76
2021/10/16 01:01:37;;;;;;;4.50;2.70;;;11.20;70.70;;;;;;4865641;29;20033;-76
2021/10/16 01:04:03;;;;;;;4.70;2.83;;;11.20;70.70;;;;;;4881065;29;20044;-76
2021/10/16 01:06:36;;;;;;;4.05;2.78;;;11.20;70.70;;;;;;4881937;29;20040;-76
2021/10/16 01:09:07;;;;;;;4.78;2.50;;;11.20;70.80;;;;;;4866260;29;20045;-77
2021/10/16 01:11:35;;;;;;;3.88;2.58;;;11.20;70.80;;;;;;4901235;29;20041;-77
2021/10/16 01:14:06;;;;;;;3.88;2.60;;;11.20;70.80;;;;;;4869615;29;20033;-76
2021/10/16 01:16:33;;;;;;;4.97;2.80;;;11.10;70.80;;;;;;4884350;29;20039;-77
2021/10/16 01:18:59;;;;;;;4.25;2.65;;;11.10;70.80;;;;;;4868803;29;20057;-79
2021/10/16 01:21:28;;;;;;;3.95;2.50;;;11.10;70.80;;;;;;4884880;29;20068;-79
2021/10/16 01:23:54;;;;;;;4.50;2.67;;;11.10;70.80;;;;;;4869428;29;20123;-79
2021/10/16 01:26:20;;;;;;;3.35;2.33;;;11.10;70.80;;;;;;4884041;29;20036;-79
2021/10/16 01:28:46;;;;;;;4.38;2.72;;;11.10;70.80;;;;;;4899658;29;20040;-79
2021/10/16 01:31:12;;;;;;;3.90;2.72;;;11.00;70.80;;;;;;4900422;29;20036;-79
2021/10/16 01:33:38;;;;;;;4.03;2.95;;;11.00;70.80;;;;;;4868763;29;20039;-78
2021/10/16 01:36:06;;;;;;;3.92;2.33;;;11.00;70.80;;;;;;4884481;29;20031;-78
2021/10/16 01:38:33;;;;;;;3.53;2.20;;;11.00;70.90;;;;;;4884403;29;20036;-79
2021/10/16 01:41:02;;;;;;;4.90;2.53;;;11.00;70.90;;;;;;4869091;29;20047;-78
2021/10/16 01:43:28;;;;;;;4.28;2.63;;;11.00;70.90;;;;;;4884004;29;20033;-79
2021/10/16 01:45:55;;;;;;;3.63;2.17;;;10.90;70.80;;;;;;4899697;29;20079;-79
2021/10/16 01:48:25;;;;;;;3.78;2.45;;;10.90;70.90;;;;;;4899610;29;20037;-79
2021/10/16 01:50:52;;;;;;;3.92;2.35;;;10.90;70.90;;;;;;4898910;29;20083;-79
2021/10/16 01:53:24;;;;;;;3.42;2.20;;;10.90;70.90;;;;;;4900472;29;20036;-79
2021/10/16 01:55:56;;;;;;;4.60;2.70;;;10.90;70.90;;;;;;4869160;29;20039;-79
2021/10/16 01:58:25;;;;;;;3.67;2.35;;;10.90;70.90;;;;;;4868633;29;20041;-79
2021/10/16 02:01:10;;;;;;;3.15;2.50;;;10.90;70.90;;;;;;4871245;29;20029;-79
2021/10/16 02:03:36;;;;;;;4.63;2.80;;;10.80;70.90;;;;;;4899206;29;20032;-79
2021/10/16 02:06:08;;;;;;;4.47;2.50;;;10.80;70.90;;;;;;4868800;29;20098;-79
2021/10/16 02:08:36;;;;;;;3.35;2.40;;;10.80;70.90;;;;;;4867914;29;20047;-78
2021/10/16 02:11:01;;;;;;;4.90;2.45;;;10.80;71.00;;;;;;4899695;29;20031;-79
2021/10/16 02:13:36;;;;;;;3.97;2.60;;;10.80;71.00;;;;;;4899788;29;20047;-79
2021/10/16 02:16:05;;;;;;;4.95;2.88;;;10.70;70.90;;;;;;4899481;29;20028;-79
2021/10/16 02:19:09;;;;;;;4.53;2.45;;;10.80;71.00;;;;;;4883713;29;20056;-79
2021/10/16 02:21:36;;;;;;;3.88;2.50;;;10.70;70.90;;;;;;4882212;29;20064;-78
2021/10/16 02:24:02;;;;;;;3.75;2.50;;;10.70;71.00;;;;;;4899342;29;20120;-79
2021/10/16 02:26:37;;;;;;;5.45;2.78;;;10.70;71.10;;;;;;4884677;29;20108;-79
2021/10/16 02:29:03;;;;;;;3.58;2.30;;;10.70;71.10;;;;;;4898543;29;20040;-79
2021/10/16 02:31:37;;;;;;;4.00;2.85;;;10.70;71.10;;;;;;4868817;29;20120;-79
2021/10/16 02:34:07;;;;;;;3.92;2.28;;;10.70;71.10;;;;;;4883083;29;20374;-79
2021/10/16 02:36:43;;;;;;;3.30;2.60;;;10.70;71.20;;;;;;4900098;29;20043;-79
2021/10/16 02:39:09;;;;;;;3.92;2.47;;;10.60;71.10;;;;;;4882720;29;20044;-79
2021/10/16 02:41:34;;;;;;;3.30;2.28;;;10.60;71.20;;;;;;4882822;29;20021;-79
2021/10/16 02:44:01;;;;;;;4.68;2.40;;;10.60;71.20;;;;;;4882505;29;20169;-79
2021/10/16 02:46:28;;;;;;;3.22;2.25;;;10.60;71.20;;;;;;4882549;29;20037;-79
2021/10/16 02:48:54;;;;;;;3.92;2.67;;;10.70;71.30;;;;;;4898891;29;20101;-79
2021/10/16 02:51:20;;;;;;;3.33;2.22;;;10.60;71.30;;;;;;4867929;29;20036;-79
2021/10/16 02:53:47;;;;;;;4.13;2.28;;;10.60;71.30;;;;;;4882527;29;20031;-79
2021/10/16 02:56:14;;;;;;;3.40;2.30;;;10.60;71.30;;;;;;4899034;29;20036;-78
2021/10/16 02:58:40;;;;;;;4.35;2.83;;;10.60;71.40;;;;;;4898240;29;20056;-79
2021/10/16 03:01:06;;;;;;;3.60;2.47;;;10.60;71.40;;;;;;4898043;29;20060;-79
2021/10/16 03:03:32;;;;;;;5.20;2.63;;;10.60;71.40;;;;;;4867205;29;20059;-79
2021/10/16 03:05:58;;;;;;;4.03;2.40;;;10.60;71.40;;;;;;4883040;29;20036;-79
2021/10/16 03:08:24;;;;;;;3.83;2.50;;;10.60;71.40;;;;;;4866889;29;20513;-78
2021/10/16 03:10:49;;;;;;;3.95;2.53;;;10.60;71.50;;;;;;4898105;29;20481;-79
2021/10/16 03:13:25;;;;;;;3.40;2.33;;;10.60;71.50;;;;;;4868800;29;20039;-79
2021/10/16 03:15:53;;;;;;;4.22;2.78;;;10.60;71.50;;;;;;4883778;29;20087;-78
2021/10/16 03:18:20;;;;;;;3.88;2.50;;;10.60;71.50;;;;;;4897641;29;20099;-78
2021/10/16 03:20:46;;;;;;;3.78;2.55;;;10.60;71.60;;;;;;4866757;29;20033;-78
2021/10/16 03:23:14;;;;;;;3.60;2.42;;;10.60;71.60;;;;;;4866840;29;20045;-79
2021/10/16 03:25:40;;;;;;;5.63;2.47;;;10.60;71.60;;;;;;4898830;29;20462;-78
2021/10/16 03:28:06;;;;;;;3.53;2.40;;;10.60;71.70;;;;;;4882361;29;20044;-79
2021/10/16 03:30:33;;;;;;;4.10;2.60;;;10.60;71.70;;;;;;4897349;29;20029;-79
2021/10/16 03:32:59;;;;;;;4.35;2.47;;;10.60;71.70;;;;;;4881547;29;20401;-79
2021/10/16 03:35:24;;;;;;;3.00;2.45;;;10.70;71.80;;;;;;4881904;29;20040;-79
2021/10/16 03:37:51;;;;;;;3.40;2.50;;;10.60;71.70;;;;;;4897778;29;20099;-79
2021/10/16 03:40:17;;;;;;;3.45;2.47;;;10.60;71.70;;;;;;4881925;29;20074;-79
2021/10/16 03:42:42;;;;;;;3.95;2.42;;;10.60;71.80;;;;;;4882077;29;20068;-79
2021/10/16 03:45:15;;;;;;;3.53;2.42;;;10.70;71.80;;;;;;4867400;29;20169;-78
2021/10/16 03:47:41;;;;;;;3.30;2.50;;;10.60;71.80;;;;;;4881774;29;20061;-79
2021/10/16 03:50:07;;;;;;;3.42;2.20;;;10.60;71.80;;;;;;4881638;29;20393;-79
2021/10/16 03:52:34;;;;;;;3.85;2.50;;;10.60;71.90;;;;;;4882023;29;20067;-79
2021/10/16 03:55:00;;;;;;;3.30;2.13;;;10.60;71.90;;;;;;4882462;29;20032;-79
2021/10/16 03:57:26;;;;;;;3.45;2.33;;;10.60;71.90;;;;;;4881925;29;20397;-78
2021/10/16 03:59:52;;;;;;;3.70;2.40;;;10.70;72.00;;;;;;4897996;29;20039;-78
2021/10/16 04:02:19;;;;;;;3.80;2.22;;;10.70;72.00;;;;;;4897435;29;20036;-76
2021/10/16 04:04:46;;;;;;;3.40;2.33;;;10.70;72.00;;;;;;4881830;29;20037;-77
2021/10/16 04:07:12;;;;;;;3.08;2.13;;;10.70;72.00;;;;;;4882248;29;20355;-76
2021/10/16 04:09:39;;;;;;;4.47;2.75;;;10.70;72.10;;;;;;4897171;29;20104;-77
2021/10/16 04:12:05;;;;;;;3.95;2.58;;;10.70;72.60;;;;;;4865977;29;20037;-76
2021/10/16 04:14:32;;;;;;;3.50;2.20;;;10.70;72.00;;;;;;4866087;29;20591;-77
2021/10/16 04:16:59;;;;;;;4.20;2.60;;;10.70;72.00;;;;;;4881642;29;20040;-77
2021/10/16 04:19:25;;;;;;;3.63;2.30;;;10.70;72.00;;;;;;4896852;29;20063;-77
2021/10/16 04:21:51;;;;;;;3.92;2.40;;;10.70;72.10;;;;;;4896989;29;20496;-77
2021/10/16 04:24:17;;;;;;;2.65;2.10;;;10.70;72.10;;;;;;4881584;29;20048;-77
2021/10/16 04:26:43;;;;;;;4.13;2.58;;;10.70;72.10;;;;;;4897257;29;20462;-77
2021/10/16 04:29:09;;;;;;;3.95;2.30;;;10.70;72.10;;;;;;4897048;29;20051;-77
2021/10/16 04:31:55;;;;;;;3.72;2.42;;;10.70;72.10;;;;;;4871248;29;20434;-77
2021/10/16 04:34:22;;;;;;;3.10;2.40;;;10.70;72.10;;;;;;4897717;29;20037;-77
2021/10/16 04:36:47;;;;;;;3.70;2.35;;;10.70;72.20;;;;;;4881835;29;20107;-77
2021/10/16 04:39:13;;;;;;;3.40;2.50;;;10.70;72.20;;;;;;4866181;29;20072;-77
2021/10/16 04:41:39;;;;;;;2.75;2.10;;;10.70;72.20;;;;;;4882078;29;20036;-77
2021/10/16 04:44:05;;;;;;;3.95;2.40;;;10.70;72.20;;;;;;4866835;29;20108;-77
2021/10/16 04:46:32;;;;;;;3.10;2.40;;;10.70;72.20;;;;;;4869223;29;20027;-77
2021/10/16 04:49:04;;;;;;;2.40;2.03;;;10.80;72.20;;;;;;4885566;29;20308;-77
2021/10/16 04:51:31;;;;;;;3.72;2.35;;;10.70;72.20;;;;;;4884831;29;20037;-77
2021/10/16 04:53:57;;;;;;;3.65;2.30;;;10.80;72.30;;;;;;4900667;29;20039;-77
2021/10/16 04:56:23;;;;;;;3.17;2.20;;;10.80;72.30;;;;;;4900341;29;20033;-77
2021/10/16 04:58:49;;;;;;;2.75;2.25;;;10.70;72.20;;;;;;4869248;29;20032;-77
2021/10/16 05:01:15;;;;;;;3.97;2.50;;;10.80;72.30;;;;;;4884634;29;20041;-79
2021/10/16 05:03:44;;;;;;;3.55;2.22;;;10.80;72.30;;;;;;4884530;29;20037;-79
2021/10/16 05:06:09;;;;;;;3.47;2.38;;;10.80;72.30;;;;;;4884476;29;20088;-79
2021/10/16 05:08:36;;;;;;;4.05;2.67;;;10.80;72.30;;;;;;4868760;29;20048;-79
2021/10/16 05:11:02;;;;;;;3.15;2.42;;;10.80;72.30;;;;;;4900138;29;20036;-79
2021/10/16 05:13:29;;;;;;;3.63;2.15;;;10.80;72.30;;;;;;4885059;29;20043;-79
2021/10/16 05:15:55;;;;;;;3.45;2.20;;;10.80;72.40;;;;;;4899644;29;20111;-79
2021/10/16 05:18:23;;;;;;;3.95;2.30;;;10.80;72.40;;;;;;4884026;29;20044;-79
2021/10/16 05:20:52;;;;;;;3.15;2.20;;;10.80;72.40;;;;;;4884251;29;20051;-79
2021/10/16 05:23:22;;;;;;;3.60;2.35;;;10.80;72.40;;;;;;4884425;29;20029;-79
2021/10/16 05:25:51;;;;;;;3.95;2.30;;;10.80;72.40;;;;;;4900124;29;20367;-78
2021/10/16 05:28:18;;;;;;;2.92;2.28;;;10.80;72.40;;;;;;4868806;29;20119;-79
2021/10/16 05:30:46;;;;;;;3.15;2.15;;;10.80;72.40;;;;;;4884271;29;20033;-79
2021/10/16 05:33:12;;;;;;;4.03;2.20;;;10.80;72.40;;;;;;4869257;29;20040;-80
2021/10/16 05:35:43;;;;;;;3.22;2.28;;;10.80;72.40;;;;;;4884050;29;20032;-79
2021/10/16 05:38:13;;;;;;;;;;;10.80;72.40;;;;;;4901453;29;20064;-79
2021/10/16 05:40:40;;;;;;;4.05;2.10;;;10.80;72.40;;;;;;4883992;29;20424;-79
2021/10/16 05:43:06;;;;;;;3.88;2.30;;;10.80;72.30;;;;;;4883798;29;20020;-78
2021/10/16 05:45:32;;;;;;;3.13;2.42;;;10.80;72.40;;;;;;4868107;29;20166;-79
2021/10/16 05:47:59;;;;;;;3.40;2.20;;;10.80;72.50;;;;;;4899267;29;20104;-79
2021/10/16 05:50:25;;;;;;;2.75;2.05;;;10.80;72.60;;;;;;4883734;29;20052;-79
2021/10/16 05:52:52;;;;;;;2.65;2.10;;;10.80;72.50;;;;;;4883377;29;20037;-79
2021/10/16 05:55:18;;;;;;;2.95;2.13;;;10.80;73.20;;;;;;4899201;29;20397;-79
2021/10/16 05:57:45;;;;;;;3.28;2.00;;;10.80;72.50;;;;;;4883873;29;20024;-79
2021/10/16 06:00:11;;;;;;;3.65;2.20;;;10.80;72.50;;;;;;4883638;29;20040;-79
2021/10/16 06:02:47;;;;;;;3.15;2.20;;;10.80;73.10;;;;;;4869629;29;20040;-79
2021/10/16 06:05:20;;;;;;;3.65;2.15;;;10.90;72.60;;;;;;4900170;29;20036;-79
2021/10/16 06:07:46;;;;;;;3.22;2.13;;;10.90;72.60;;;;;;4883390;29;20028;-79
2021/10/16 06:10:12;;;;;;;3.15;2.10;;;10.90;72.60;;;;;;4883661;29;20041;-79
2021/10/16 06:12:38;;;;;;;4.28;2.30;;;10.90;72.60;;;;;;4898717;29;20047;-79
2021/10/16 06:15:05;;;;;;;2.92;2.05;;;10.90;72.60;;;;;;4868018;29;20470;-78
2021/10/16 06:17:31;;;;;;;2.72;2.20;;;10.90;72.60;;;;;;4883360;29;20119;-79
2021/10/16 06:19:57;;;;;;;3.10;2.20;;;10.90;72.60;;;;;;4898948;29;20148;-78
2021/10/16 06:22:23;;;;;;;2.58;2.00;;;10.90;72.60;;;;;;4883368;29;20096;-79
2021/10/16 06:24:51;;;;;;;2.67;1.95;;;10.90;72.60;;;;;;4884160;29;20040;-79
2021/10/16 06:27:17;;;;;;;4.00;2.30;;;10.90;72.60;;;;;;4898733;29;20029;-79
2021/10/16 06:29:43;;;;;;;3.03;2.20;;;10.90;72.60;;;;;;4882946;29;20075;-79
2021/10/16 06:32:09;;;;;;;2.83;2.10;;;11.00;72.60;;;;;;4882823;29;20033;-80
2021/10/16 06:34:38;;;;;;;2.53;2.05;;;10.90;72.60;;;;;;4883083;29;20143;-79
2021/10/16 06:37:04;;;;;;;3.13;2.00;;;11.00;72.60;;;;;;4882840;29;20505;-78
2021/10/16 06:39:32;;;;;;;4.35;2.47;;;11.00;72.60;;;;;;4882887;29;20135;-79
2021/10/16 06:42:00;;;;;;;3.50;1.88;;;11.00;72.70;;;;;;4867622;29;20181;-81
2021/10/16 06:44:45;;;;;;;3.07;2.23;;;11.00;72.60;;;;;;4885784;29;20048;-80
2021/10/16 06:47:33;;;;;;;2.83;2.03;;;11.00;72.60;;;;;;4874514;29;20293;-79
2021/10/16 06:50:12;;;;;;;3.17;2.30;;;11.00;72.60;;;;;;4882670;29;20136;-79
2021/10/16 06:52:38;;;;;;;3.10;2.05;;;11.00;72.60;;;;;;4882762;29;20056;-79
2021/10/16 06:55:04;;;;;;;2.72;2.08;;;11.00;72.70;;;;;;4866694;29;20100;-79
2021/10/16 06:57:31;;;;;;;4.22;2.22;;;11.00;72.70;;;;;;4882645;29;20128;-78
2021/10/16 06:59:58;;;;;;;3.40;2.30;;;11.00;72.70;;;;;;4867434;29;20040;-78
2021/10/16 07:02:24;;;;;;;3.10;2.15;;;11.00;72.70;;;;;;4867155;29;20039;-78
2021/10/16 07:04:55;;;;;;;2.67;1.95;;;11.00;72.70;;;;;;4882169;29;20038;-77
2021/10/16 07:07:22;;;;;;;3.97;2.35;;;11.00;72.70;;;;;;4881659;29;20084;-78
2021/10/16 07:09:55;;;;;;;2.50;1.95;;;11.10;72.80;;;;;;4867904;29;20040;-78
2021/10/16 07:12:22;;;;;;;2.70;2.00;;;11.00;72.70;;;;;;4881804;29;20529;-78
2021/10/16 07:14:48;;;;;;;3.38;2.20;;;11.00;72.70;;;;;;4866782;29;20036;-78
2021/10/16 07:17:14;;;;;;;3.20;2.15;;;11.10;72.80;;;;;;4881995;29;20127;-78
2021/10/16 07:19:40;;;;;;;3.35;2.30;;;11.10;72.80;;;;;;4881895;29;20139;-79
2021/10/16 07:22:06;;;;;;;2.47;2.08;;;11.10;72.80;;;;;;4882038;29;20071;-78
2021/10/16 07:24:32;;;;;;;2.63;2.17;;;11.10;72.80;;;;;;4866464;29;20036;-79
2021/10/16 07:26:58;;;;;;;3.38;2.40;;;11.10;72.80;;;;;;4882090;29;20044;-80
2021/10/16 07:29:24;;;;;;;2.88;2.10;;;11.10;72.80;;;;;;4898813;29;20040;-79
2021/10/16 07:31:53;;;;;;;2.95;1.90;;;11.10;72.80;;;;;;4882174;29;20036;-79
2021/10/16 07:34:20;;;;;;;2.53;2.20;;;11.10;72.80;;;;;;4882015;29;20032;-79
2021/10/16 07:36:47;;;;;;;2.47;1.90;;;11.10;72.80;;;;;;4882018;29;20036;-77
2021/10/16 07:39:13;;;;;;;3.08;2.13;;;11.10;72.80;;;;;;4898332;29;20443;-77
2021/10/16 07:41:39;;;;;;;3.13;2.25;;;11.20;72.80;;;;;;4881617;29;20040;-77
2021/10/16 07:44:06;;;;;;;2.83;2.08;;;11.20;72.90;;;;;;4865968;29;20144;-77
2021/10/16 07:46:33;;;;;;;2.63;1.92;;;11.20;72.90;;;;;;4881442;29;20032;-78
2021/10/16 07:48:58;;;;;;;3.42;2.35;;;11.20;72.90;;;;;;4898251;29;20413;-79
2021/10/16 07:51:24;;;;;;;3.30;1.77;;;11.20;72.80;;;;;;4865878;29;20044;-79
2021/10/16 07:53:50;;;;;;;2.90;2.00;;;11.20;72.80;;;;;;4881428;29;20036;-78
2021/10/16 07:56:16;;;;;;;3.22;2.08;;;11.20;72.80;;;;;;4881649;29;20032;-77
2021/10/16 07:58:42;;;;;;;2.65;1.90;;;11.20;72.80;;;;;;4898388;29;20107;-79
2021/10/16 08:01:09;;;;;;;2.95;2.08;;;11.30;72.90;;;;;;4881831;29;20037;-78
2021/10/16 08:03:38;;;;;;;3.38;2.20;;;11.30;73.00;;;;;;4898632;29;20025;-78
2021/10/16 08:06:04;;;;;;;4.07;2.40;;;11.30;73.00;;;;;;4898268;29;20048;-77
2021/10/16 08:08:30;;;;;;;2.50;1.88;;;11.30;72.90;;;;;;4881687;29;20041;-79
2021/10/16 08:10:57;;;;;;;3.42;2.28;;;11.30;72.90;;;;;;4881652;29;20044;-78
2021/10/16 08:13:25;;;;;;;3.08;1.98;;;11.30;73.00;;;;;;4866687;29;20037;-80
2021/10/16 08:15:51;;;;;;;2.80;2.00;;;11.30;72.90;;;;;;4898488;29;20041;-82
2021/10/16 08:18:16;;;;;;;2.88;1.98;;;11.30;72.90;;;;;;4862798;29;20052;-81
2021/10/16 08:20:42;;;;;;;3.28;2.10;;;11.40;73.00;;;;;;4882694;29;20036;-79
2021/10/16 08:23:08;;;;;;;2.88;2.05;;;11.40;72.90;;;;;;4882046;29;20546;-80
2021/10/16 08:25:34;;;;;;;2.83;2.03;;;11.40;72.90;;;;;;4866700;29;20478;-80
2021/10/16 08:28:11;;;;;;;2.88;1.92;;;11.40;73.00;;;;;;4883690;29;20029;-80
2021/10/16 08:30:40;;;;;;;2.90;1.98;;;11.40;73.10;;;;;;4882377;29;20381;-79
2021/10/16 08:33:06;;;;;;;2.97;2.13;;;11.50;73.00;;;;;;4883247;29;20025;-80
2021/10/16 08:35:32;;;;;;;3.35;2.20;;;11.50;73.10;;;;;;4883109;29;20501;-80
2021/10/16 08:37:58;;;;;;;3.15;2.15;;;11.50;73.00;;;;;;4882248;29;20044;-79
2021/10/16 08:40:27;;;;;;;1.90;1.70;;;11.50;73.00;;;;;;4881745;29;20594;-80
2021/10/16 08:42:53;;;;;;;3.35;2.08;;;11.50;73.10;;;;;;4882060;29;20056;-80
2021/10/16 08:45:19;;;;;;;3.58;2.05;;;11.50;73.00;;;;;;4866346;29;20036;-80
2021/10/16 08:47:46;;;;;;;2.70;1.90;;;11.60;73.10;;;;;;4882918;29;20029;-80
2021/10/16 08:50:13;;;;;;;3.08;2.13;;;11.60;73.10;;;;;;4881388;29;20053;-80
2021/10/16 08:52:40;;;;;;;2.15;1.80;;;11.60;73.10;;;;;;4866133;29;20386;-79
2021/10/16 08:55:08;;;;;;;2.40;1.80;;;11.60;73.10;;;;;;4883024;29;20037;-80
2021/10/16 08:57:38;;;;;;;2.67;1.88;;;11.60;73.00;;;;;;4850964;29;20048;-80
2021/10/16 09:00:41;;;;;;;2.53;1.95;;;11.70;73.10;;;;;;4865860;29;20055;-80
2021/10/16 09:03:23;;;;;;;3.17;2.00;;;11.70;73.20;;;;;;4866003;29;20025;-80
2021/10/16 09:06:16;;;;;;;2.42;2.00;;;11.70;73.10;;;;;;4881985;29;20073;-80
2021/10/16 09:08:55;;;;;;;1.73;1.50;;;11.70;73.10;;;;;;4882096;29;20485;-80
2021/10/16 09:11:32;;;;;;;1.98;1.77;;;11.70;73.10;;;;;;4912755;29;20490;-80
2021/10/16 09:14:04;;;;;;;2.88;1.75;;;11.70;73.10;;;;;;4881031;29;20029;-80
2021/10/16 09:16:34;;;;;;;3.10;1.95;;;11.80;73.10;;;;;;4881271;29;20033;-80
2021/10/16 09:19:04;;;;;;;4.72;2.05;;;11.80;73.10;;;;;;4880696;29;20061;-79
2021/10/16 09:21:32;;;;;;;4.10;1.85;;;11.90;73.10;;;;;;4882433;29;20044;-80
2021/10/16 09:24:11;;;;;;;3.00;1.88;;;11.90;73.10;;;;;;4912235;29;20035;-80
2021/10/16 09:26:39;;;;;;;2.08;1.70;;;11.90;73.10;;;;;;4881368;29;20024;-80
2021/10/16 09:29:07;;;;;;;2.15;1.70;;;11.90;73.10;;;;;;4865207;29;20025;-80
2021/10/16 09:31:42;;;;;;;3.63;1.92;;;12.00;73.10;;;;;;4880209;29;20063;-80
2021/10/16 09:34:08;;;;;;;;;;;12.00;73.10;;;;;;4882380;29;20029;-80
2021/10/16 09:36:36;;;;;;;2.80;1.90;;;12.00;73.00;;;;;;4882098;29;20266;-80
2021/10/16 09:39:04;;;;;;;1.98;1.70;;;12.00;73.60;;;;;;4881523;29;20044;-80
2021/10/16 09:41:35;;;;;;;3.92;1.90;;;12.00;73.10;;;;;;4881505;29;20029;-80
2021/10/16 09:44:03;;;;;;;2.05;1.50;;;12.10;73.20;;;;;;4880870;29;20466;-80
2021/10/16 09:46:29;;;;;;;1.92;1.73;;;12.10;73.20;;;;;;4865476;29;20435;-80
2021/10/16 09:49:07;;;;;;;1.98;1.77;;;12.10;73.10;;;;;;4865005;29;20060;-80
2021/10/16 09:51:49;;;;;;;2.20;1.48;;;12.20;73.30;;;;;;4912682;29;20033;-80
2021/10/16 09:54:14;;;;;;;2.35;1.70;;;12.20;73.30;;;;;;4912227;29;20375;-79
2021/10/16 09:56:41;;;;;;;2.92;1.80;;;12.20;73.10;;;;;;4881332;29;20033;-80
2021/10/16 09:59:08;;;;;;;2.75;1.85;;;12.20;73.70;;;;;;4881735;29;20037;-80
2021/10/16 10:01:34;;;;;;;2.45;1.70;;;12.30;73.10;;;;;;4881776;29;20037;-79
2021/10/16 10:04:01;;;;;;;2.88;1.65;;;12.30;73.10;;;;;;4880351;29;20085;-80
2021/10/16 10:06:28;;;;;;;2.70;1.77;;;12.40;73.20;;;;;;4881152;29;20025;-80
2021/10/16 10:08:53;;;;;;;2.42;1.65;;;12.40;73.10;;;;;;4881429;29;20045;-80
2021/10/16 10:11:20;;;;;;;3.78;2.00;;;12.40;73.10;;;;;;4864862;29;20031;-80
2021/10/16 10:13:48;;;;;;;2.42;1.80;;;12.40;73.10;;;;;;4881377;29;20040;-80
2021/10/16 10:16:17;;;;;;;3.95;2.00;;;12.50;73.10;;;;;;4911226;29;20033;-80
2021/10/16 10:19:01;;;;;;;2.88;1.90;;;12.50;73.10;;;;;;4864189;29;20053;-81
2021/10/16 10:21:35;;;;;;;2.30;1.63;;;12.50;73.00;;;;;;4881890;29;20373;-81
2021/10/16 10:24:04;;;;;;;2.37;1.67;;;12.60;73.10;;;;;;4880401;29;20089;-81
2021/10/16 10:26:48;;;;;;;2.05;1.50;;;12.60;73.00;;;;;;4880336;29;20030;-80
2021/10/16 10:29:17;;;;;;;2.20;1.63;;;12.60;72.90;;;;;;4879710;29;20124;-80
2021/10/16 10:31:58;;;;;;;3.20;1.50;;;12.70;73.00;;;;;;4911338;29;20068;-81
2021/10/16 10:34:28;;;;;;;2.08;1.40;;;12.70;73.10;;;;;;4880132;29;20033;-80
2021/10/16 10:37:01;;;;;;;1.90;1.50;;;12.70;72.90;;;;;;4880946;29;20115;-80
2021/10/16 10:39:33;;;;;;;3.03;1.75;;;12.70;72.90;;;;;;4881462;29;20444;-80
2021/10/16 10:42:22;;;;;;;3.85;1.60;;;12.80;73.00;;;;;;4880026;29;20037;-80
2021/10/16 10:44:52;;;;;;;2.60;1.65;;;12.80;72.90;;;;;;4867093;29;20124;-80
2021/10/16 10:47:29;;;;;;;2.78;1.70;;;12.90;72.90;;;;;;4879556;29;20028;-80
2021/10/16 10:50:03;;;;;;;2.35;1.58;;;12.90;73.00;;;;;;4879219;29;20041;-80
2021/10/16 10:53:10;;;;;;;2.67;1.52;;;12.90;72.90;;;;;;4881141;29;20041;-81
2021/10/16 10:55:57;;;;;;;2.38;1.60;;;13.00;73.00;;;;;;4880462;29;20033;-80
2021/10/16 10:58:49;;;;;;;2.53;1.52;;;13.00;72.90;;;;;;4880412;29;20032;-80
2021/10/16 11:01:52;;;;;;;2.20;1.50;;;13.00;72.90;;;;;;4881056;29;20104;-80
2021/10/16 11:04:40;;;;;;;1.83;1.30;;;13.00;72.90;;;;;;4880478;29;20033;-80
2021/10/16 11:07:10;;;;;;;2.70;1.65;;;13.10;72.90;;;;;;4863856;29;20040;-80
2021/10/16 11:09:37;;;;;;;2.22;1.60;;;13.10;72.80;;;;;;4879342;29;20055;-80
2021/10/16 11:12:03;;;;;;;3.10;1.60;;;13.10;72.80;;;;;;4879570;29;20121;-80
2021/10/16 11:14:33;;;;;;;2.45;1.52;;;13.20;72.80;;;;;;4894498;29;20041;-80
2021/10/16 11:17:03;;;;;;;2.95;1.60;;;13.20;72.80;;;;;;4880127;29;20057;-80
2021/10/16 11:19:29;;;;;;;4.15;1.52;;;13.30;72.80;;;;;;4878912;29;20141;-80
2021/10/16 11:21:58;;;;;;;2.38;1.50;;;13.30;72.70;;;;;;4879652;29;20037;-80
2021/10/16 11:24:27;;;;;;;2.10;1.55;;;13.30;72.70;;;;;;4910575;29;20037;-80
2021/10/16 11:26:58;;;;;;;3.50;1.70;;;13.40;72.70;;;;;;4879071;29;20101;-80
2021/10/16 11:29:34;;;;;;;2.25;1.50;;;13.40;72.70;;;;;;4879156;29;20045;-80
2021/10/16 11:32:16;;;;;;;1.67;1.35;;;13.40;72.70;;;;;;4879767;29;20051;-81
2021/10/16 11:34:59;;;;;;;3.95;1.80;;;13.50;72.70;;;;;;4879173;29;20514;-81
2021/10/16 11:37:45;;;;;;;2.78;1.60;;;13.50;72.70;;;;;;4879076;29;20041;-81
2021/10/16 11:40:15;;;;;;;2.33;1.30;;;13.60;72.80;;;;;;4878534;29;20064;-80
2021/10/16 11:42:53;;;;;;;3.72;1.70;;;13.60;72.70;;;;;;4910406;29;20037;-80
2021/10/16 11:45:21;;;;;;;2.35;1.60;;;13.60;72.70;;;;;;4878735;29;20029;-80
2021/10/16 11:47:49;;;;;;;2.75;1.45;;;13.60;72.70;;;;;;4879819;29;20474;-80
2021/10/16 11:50:23;;;;;;;3.45;1.73;;;13.70;72.70;;;;;;4909881;29;20052;-81
2021/10/16 11:52:52;;;;;;;1.73;1.45;;;13.70;72.70;;;;;;4909668;29;20029;-80
2021/10/16 11:55:23;;;;;;;4.10;1.65;;;13.80;72.70;;;;;;4879254;29;20025;-80
2021/10/16 11:57:50;;;;;;;3.10;1.58;;;13.80;72.70;;;;;;4863037;29;20152;-80
2021/10/16 12:00:27;;;;;;;3.17;1.65;;;13.80;72.70;;;;;;4878430;29;20040;-80
2021/10/16 12:02:55;;;;;;;2.63;1.55;;;13.90;72.80;;;;;;4879825;29;20025;-80
2021/10/16 12:05:22;;;;;;;2.72;1.38;;;13.90;72.70;;;;;;4863297;29;20037;-80
2021/10/16 12:07:49;;;;;;;2.65;1.42;;;13.90;72.70;;;;;;4909477;29;20060;-80
2021/10/16 12:10:25;;;;;;;3.35;1.50;;;14.00;72.70;;;;;;4878913;29;20049;-80
2021/10/16 12:13:07;;;;;;;1.85;1.50;;;14.00;72.70;;;;;;4878339;29;20073;-80
2021/10/16 12:15:42;;;;;;;3.08;1.80;;;14.10;72.80;;;;;;4878337;29;20085;-80
2021/10/16 12:18:26;;;;;;;2.42;1.40;;;14.10;72.60;;;;;;4880256;29;20029;-79
2021/10/16 12:20:56;;;;;;;3.15;1.60;;;14.10;72.70;;;;;;4865851;29;20068;-80
2021/10/16 12:23:23;;;;;;;3.33;2.03;;;14.20;72.60;;;;;;4866596;29;20381;-80
2021/10/16 12:25:55;;;;;;;2.70;1.50;;;14.20;72.60;;;;;;4898141;29;20359;-80
2021/10/16 12:28:23;;;;;;;4.55;2.10;;;14.20;72.60;;;;;;4881702;29;20040;-80
2021/10/16 12:31:07;;;;;;;2.58;1.60;;;14.30;72.60;;;;;;4881921;29;20036;-80
2021/10/16 12:33:54;;;;;;;2.80;1.30;;;14.30;72.70;;;;;;4882218;29;20195;-80
2021/10/16 12:36:32;;;;;;;2.25;1.52;;;14.30;72.70;;;;;;4898396;29;20072;-80
2021/10/16 12:38:59;;;;;;;1.23;1.10;;;14.40;72.60;;;;;;4881099;29;20107;-80
2021/10/16 12:41:32;;;;;;;2.63;1.48;;;14.40;72.60;;;;;;4881053;29;20120;-80
2021/10/16 12:44:15;;;;;;;3.13;1.65;;;14.40;72.60;;;;;;4898093;29;20041;-80
2021/10/16 12:46:41;;;;;;;2.28;1.50;;;14.50;72.70;;;;;;4881496;29;20043;-80
2021/10/16 12:49:07;;;;;;;2.45;1.30;;;14.50;72.50;;;;;;4865906;29;20059;-80
2021/10/16 12:51:41;;;;;;;2.75;1.50;;;14.60;72.50;;;;;;4897685;29;20483;-80
2021/10/16 12:54:07;;;;;;;3.03;1.27;;;14.60;72.50;;;;;;4881320;29;20036;-79
2021/10/16 12:56:33;;;;;;;2.08;1.30;;;14.60;72.40;;;;;;4896996;29;20378;-79
2021/10/16 12:58:59;;;;;;;3.13;1.63;;;14.60;72.40;;;;;;4881461;29;20040;-80